createdAt,value
2022-12-13T00:02:41.568Z,101349.28
2022-12-13T00:07:35.900Z,101341.09
2022-12-13T00:12:28.203Z,101322.41
2022-12-13T00:17:22.289Z,101337.00
2022-12-13T00:22:29.732Z,101337.66
2022-12-13T00:27:24.451Z,101324.06
2022-12-13T00:32:18.399Z,101332.31
2022-12-13T00:37:31.908Z,101333.81
2022-12-13T00:42:28.995Z,101314.06
2022-12-13T00:47:30.850Z,101313.34
2022-12-13T00:52:26.326Z,101315.94
2022-12-13T00:57:20.747Z,101307.28
2022-12-13T01:02:16.997Z,101302.56
2022-12-13T01:07:10.434Z,101299.16
2022-12-13T01:12:08.093Z,101297.41
2022-12-13T01:17:15.622Z,101301.59
2022-12-13T01:22:14.810Z,101293.91
2022-12-13T01:27:12.964Z,101294.03
2022-12-13T01:32:06.793Z,101292.28
2022-12-13T01:36:59.527Z,101304.03
2022-12-13T01:42:04.380Z,101299.72
2022-12-13T01:47:00.411Z,101288.97
2022-12-13T01:51:59.703Z,101297.00
2022-12-13T01:57:00.659Z,101292.59
2022-12-13T02:02:12.825Z,101294.13
2022-12-13T02:07:34.350Z,101289.09
2022-12-13T02:12:33.273Z,101272.88
2022-12-13T02:17:51.273Z,101273.75
2022-12-13T02:23:05.002Z,101275.38
2022-12-13T02:28:34.221Z,101260.47
2022-12-13T02:34:02.853Z,101259.03
2022-12-13T02:39:04.553Z,101268.56
2022-12-13T02:44:21.777Z,101264.19
2022-12-13T02:49:19.687Z,101258.28
2022-12-13T02:54:14.025Z,101252.34
2022-12-13T02:59:12.529Z,101257.50
2022-12-13T03:04:16.757Z,101247.94
2022-12-13T03:09:31.122Z,101254.28
2022-12-13T03:14:34.735Z,101253.41
2022-12-13T03:19:38.441Z,101257.81
2022-12-13T03:24:33.400Z,101260.34
2022-12-13T03:29:32.607Z,101264.28
2022-12-13T03:34:43.632Z,101262.53
2022-12-13T03:39:44.595Z,101273.41
2022-12-13T03:44:35.642Z,101256.19
2022-12-13T03:49:35.325Z,101257.28
2022-12-13T03:54:29.696Z,101260.56
2022-12-13T03:59:23.565Z,101263.84
2022-12-13T04:04:18.920Z,101263.09
2022-12-13T04:09:12.790Z,101263.84
2022-12-13T04:14:04.542Z,101262.09
2022-12-13T04:18:59.676Z,101264.53
2022-12-13T04:23:54.964Z,101247.66
2022-12-13T04:28:52.557Z,101261.78
2022-12-13T04:33:45.144Z,101252.34
2022-12-13T04:38:41.266Z,101243.47
2022-12-13T04:43:32.390Z,101253.78
2022-12-13T04:48:30.209Z,101232.09
2022-12-13T04:53:27.123Z,101234.03
2022-12-13T04:58:30.913Z,101205.22
2022-12-13T05:03:28.991Z,101225.25
2022-12-13T05:08:20.674Z,101218.38
2022-12-13T05:13:19.107Z,101225.06
2022-12-13T05:18:16.100Z,101221.44
2022-12-13T05:23:22.446Z,101229.22
2022-12-13T05:28:27.844Z,101229.13
2022-12-13T05:33:25.812Z,101235.91
2022-12-13T05:38:26.140Z,101236.69
2022-12-13T05:43:21.732Z,101237.31
2022-12-13T05:48:26.320Z,101232.19
2022-12-13T05:53:32.183Z,101229.41
2022-12-13T05:58:23.744Z,101223.31
2022-12-13T06:03:17.136Z,101218.03
2022-12-13T06:08:24.628Z,101217.81
2022-12-13T06:13:21.837Z,101216.72
2022-12-13T06:18:25.651Z,101211.47
2022-12-13T06:23:24.991Z,101229.31
2022-12-13T06:28:21.026Z,101235.13
2022-12-13T06:33:14.463Z,101228.34
2022-12-13T06:38:21.993Z,101223.19
2022-12-13T06:43:26.494Z,101220.34
2022-12-13T06:48:20.404Z,101224.41
2022-12-13T06:53:12.226Z,101229.19
2022-12-13T06:58:12.873Z,101227.34
2022-12-13T07:03:12.367Z,101223.81
2022-12-13T07:08:10.261Z,101209.13
2022-12-13T07:13:03.159Z,101221.84
2022-12-13T07:17:56.706Z,101221.72
2022-12-13T07:23:00.023Z,101222.50
2022-12-13T07:27:53.110Z,101219.88
2022-12-13T07:32:53.706Z,101227.44
2022-12-13T07:37:51.947Z,101227.31
2022-12-13T07:42:47.743Z,101225.66
2022-12-13T07:47:44.345Z,101232.13
2022-12-13T07:52:42.748Z,101213.06
2022-12-13T07:57:50.616Z,101229.06
2022-12-13T08:02:52.391Z,101224.25
2022-12-13T08:07:46.720Z,101226.03
2022-12-13T08:12:40.777Z,101234.03
2022-12-13T08:17:34.164Z,101237.97
2022-12-13T08:22:25.457Z,101258.03
2022-12-13T08:27:16.762Z,101251.22
2022-12-13T08:32:32.319Z,101256.19
2022-12-13T08:37:28.136Z,101268.13
2022-12-13T08:42:27.912Z,101272.88
2022-12-13T08:47:26.411Z,101272.44
2022-12-13T08:52:20.524Z,101246.34
2022-12-13T08:57:11.530Z,101263.41
2022-12-13T09:02:05.181Z,101261.75
2022-12-13T09:06:58.586Z,101259.09
2022-12-13T09:11:52.670Z,101262.88
2022-12-13T09:16:54.775Z,101271.63
2022-12-13T09:22:07.283Z,101266.72
2022-12-13T09:27:27.203Z,101253.25
2022-12-13T09:32:19.497Z,101270.81
2022-12-13T09:37:23.075Z,101265.53
2022-12-13T09:42:30.670Z,101261.16
2022-12-13T09:47:52.832Z,101250.47
2022-12-13T09:52:59.862Z,101261.72
2022-12-13T09:57:56.502Z,101250.44
2022-12-13T10:02:53.183Z,101242.34
2022-12-13T10:07:52.937Z,101244.75
2022-12-13T10:12:52.890Z,101241.59
2022-12-13T10:17:55.395Z,101232.06
2022-12-13T10:23:30.079Z,101227.00
2022-12-13T10:28:09.565Z,101222.47
2022-12-13T10:33:13.643Z,101222.81
2022-12-13T10:38:32.229Z,101215.44
2022-12-13T10:43:33.694Z,101199.25
2022-12-13T10:48:25.512Z,101190.94
2022-12-13T10:53:27.102Z,101178.88
2022-12-13T10:58:29.012Z,101188.50
2022-12-13T11:04:03.358Z,101181.19
2022-12-13T11:08:56.510Z,101171.38
2022-12-13T11:14:00.649Z,101161.75
2022-12-13T11:19:13.992Z,101159.56
2022-12-13T11:24:08.952Z,101156.41
2022-12-13T11:29:17.597Z,101159.28
2022-12-13T11:34:26.601Z,101158.38
2022-12-13T11:39:43.854Z,101143.75
2022-12-13T11:44:47.539Z,101143.22
2022-12-13T11:49:48.541Z,101134.19
2022-12-13T11:54:48.585Z,101135.63
2022-12-13T11:59:48.086Z,101118.25
2022-12-13T12:04:46.117Z,101110.03
2022-12-13T12:09:49.583Z,101115.03
2022-12-13T12:14:45.416Z,101122.47
2022-12-13T12:19:41.197Z,101114.53
2022-12-13T12:24:51.582Z,101117.34
2022-12-13T12:29:58.606Z,101113.22
2022-12-13T12:34:58.485Z,101117.25
2022-12-13T12:40:09.215Z,101126.19
2022-12-13T12:45:17.589Z,101117.38
2022-12-13T12:50:28.676Z,101125.44
2022-12-13T12:55:37.077Z,101129.91
2022-12-13T13:00:34.419Z,101111.72
2022-12-13T13:05:29.858Z,101104.06
2022-12-13T13:10:26.611Z,101098.91
2022-12-13T13:15:39.243Z,101098.91
2022-12-13T13:20:30.361Z,101088.66
2022-12-13T13:25:29.623Z,101086.91
2022-12-13T13:35:55.413Z,101062.25
2022-12-13T13:41:00.461Z,101058.75
2022-12-13T13:46:24.011Z,101048.53
2022-12-13T13:51:31.599Z,101054.41
2022-12-13T13:56:37.949Z,101061.94
2022-12-13T14:01:44.212Z,101068.41
2022-12-13T14:06:51.020Z,101065.69
2022-12-13T14:12:02.534Z,101050.38
2022-12-13T14:17:24.571Z,101044.38
2022-12-13T14:22:33.163Z,101045.91
2022-12-13T14:27:38.144Z,101043.22
2022-12-13T14:32:40.030Z,101035.09
2022-12-13T14:37:34.886Z,101031.00
2022-12-13T14:42:27.341Z,101017.34
2022-12-13T14:47:20.389Z,101025.75
2022-12-13T14:52:25.986Z,101015.13
2022-12-13T14:57:25.109Z,101016.66
2022-12-13T15:02:30.377Z,101014.06
2022-12-13T15:07:43.639Z,100991.84
2022-12-13T15:12:37.725Z,100986.72
2022-12-13T15:17:34.629Z,100971.25
2022-12-13T15:22:48.080Z,100973.69
2022-12-13T15:28:21.817Z,100968.47
2022-12-13T15:33:20.925Z,100967.50
2022-12-13T15:38:28.966Z,100975.81
2022-12-13T15:43:29.729Z,100973.19
2022-12-13T15:48:30.927Z,100962.09
2022-12-13T15:53:28.769Z,100968.81
2022-12-13T15:58:31.371Z,100961.94
2022-12-13T16:03:24.226Z,100955.88
2022-12-13T16:08:26.259Z,100964.19
2022-12-13T16:13:26.207Z,100976.00
2022-12-13T16:18:26.722Z,100963.25
2022-12-13T16:23:27.891Z,100954.66
2022-12-13T16:28:25.939Z,100947.00
2022-12-13T16:33:27.013Z,100944.31
2022-12-13T16:38:26.835Z,100935.03
2022-12-13T16:43:19.954Z,100938.25
2022-12-13T16:48:10.679Z,100935.66
2022-12-13T16:53:03.979Z,100938.09
2022-12-13T16:58:15.083Z,100932.84
2022-12-13T17:03:18.268Z,100939.50
2022-12-13T17:08:11.858Z,100950.41
2022-12-13T17:13:06.641Z,100950.34
2022-12-13T17:17:58.593Z,100943.59
2022-12-13T17:22:50.122Z,100941.84
2022-12-13T17:27:47.621Z,100930.75
2022-12-13T17:32:42.205Z,100920.56
2022-12-13T17:37:35.436Z,100924.75
2022-12-13T17:42:35.788Z,100930.59
2022-12-13T17:47:25.580Z,100929.72
2022-12-13T17:52:26.498Z,100931.28
2022-12-13T17:57:16.214Z,100915.13
2022-12-13T18:02:07.648Z,100920.88
2022-12-13T18:07:00.523Z,100927.53
2022-12-13T18:11:56.806Z,100920.72
2022-12-13T18:16:50.298Z,100912.06
2022-12-13T18:21:43.751Z,100905.97
2022-12-13T18:26:36.013Z,100900.72
2022-12-13T18:31:35.952Z,100890.59
2022-12-13T18:36:29.299Z,100893.06
2022-12-13T18:41:30.702Z,100889.56
2022-12-13T18:46:33.522Z,100890.34
2022-12-13T18:51:29.048Z,100896.38
2022-12-13T18:56:22.271Z,100886.25
2022-12-13T19:01:18.002Z,100876.22
2022-12-13T19:06:13.124Z,100872.81
2022-12-13T19:11:11.841Z,100873.69
2022-12-13T19:16:10.939Z,100863.63
2022-12-13T19:21:19.160Z,100862.69
2022-12-13T19:26:12.465Z,100857.63
2022-12-13T19:31:12.251Z,100857.63
2022-12-13T19:36:03.803Z,100841.50
2022-12-13T19:41:01.340Z,100829.72
2022-12-13T19:45:58.375Z,100829.00
2022-12-13T19:50:48.292Z,100827.25
2022-12-13T19:55:37.843Z,100815.41
2022-12-13T20:00:32.278Z,100808.59
2022-12-13T20:05:27.084Z,100810.94
2022-12-13T20:10:22.528Z,100801.59
2022-12-13T20:15:15.081Z,100796.19
2022-12-13T20:20:08.584Z,100786.59
2022-12-13T20:25:08.893Z,100776.31
2022-12-13T20:30:04.054Z,100773.63
2022-12-13T20:35:01.847Z,100753.28
2022-12-13T20:40:00.764Z,100758.16
2022-12-13T20:45:00.605Z,100745.38
2022-12-13T20:49:59.932Z,100741.09
2022-12-13T20:54:56.380Z,100741.78
2022-12-13T21:00:01.332Z,100729.84
2022-12-13T21:04:59.272Z,100724.72
2022-12-13T21:10:03.548Z,100727.13
2022-12-13T21:15:02.711Z,100712.66
2022-12-13T21:19:52.839Z,100716.00
2022-12-13T21:24:47.829Z,100709.34
2022-12-13T21:29:45.891Z,100715.28
2022-12-13T21:34:45.270Z,100695.03
2022-12-13T21:39:40.792Z,100695.13
2022-12-13T21:44:34.084Z,100692.53
2022-12-13T21:49:24.501Z,100691.03
2022-12-13T21:54:38.291Z,100686.13
2022-12-13T21:59:34.682Z,100685.47
2022-12-13T22:04:30.120Z,100684.03
2022-12-13T22:09:30.854Z,100670.44
2022-12-13T22:14:25.013Z,100669.75
2022-12-13T22:19:19.653Z,100669.03
2022-12-13T22:24:17.474Z,100672.44
2022-12-13T22:29:10.902Z,100661.53
2022-12-13T22:34:01.138Z,100650.47
2022-12-13T22:38:53.303Z,100648.00
2022-12-13T22:43:56.216Z,100649.50
2022-12-13T22:48:51.912Z,100635.97
2022-12-13T22:53:49.289Z,100644.53
2022-12-13T22:58:40.994Z,100642.88
2022-12-13T23:03:33.958Z,100651.41
2022-12-13T23:08:26.556Z,100646.34
2022-12-13T23:13:17.583Z,100644.78
2022-12-13T23:18:13.420Z,100644.00
2022-12-13T23:23:03.118Z,100628.03
2022-12-13T23:28:04.976Z,100622.97
2022-12-13T23:32:59.837Z,100614.56
2022-12-13T23:37:51.863Z,100615.38
2022-12-13T23:42:49.302Z,100607.72
2022-12-13T23:47:48.796Z,100595.75
2022-12-13T23:52:39.576Z,100594.88
2022-12-13T23:57:35.409Z,100591.50
